createdAt,value
2019-05-30T00:00:53.821Z,9.80
2019-05-30T00:03:22.555Z,9.80
2019-05-30T00:05:50.919Z,9.80
2019-05-30T00:08:19.140Z,9.80
2019-05-30T00:10:47.430Z,9.90
2019-05-30T00:13:16.263Z,10.00
2019-05-30T00:15:44.792Z,10.00
2019-05-30T00:18:13.139Z,9.90
2019-05-30T00:20:41.431Z,9.90
2019-05-30T00:23:09.703Z,10.10
2019-05-30T00:25:38.350Z,10.10
2019-05-30T00:28:07.565Z,10.00
2019-05-30T00:30:35.944Z,10.10
2019-05-30T00:33:05.191Z,10.00
2019-05-30T00:35:33.760Z,10.00
2019-05-30T00:38:02.010Z,9.90
2019-05-30T00:40:30.300Z,9.90
2019-05-30T00:42:59.928Z,9.90
2019-05-30T00:45:28.368Z,10.00
2019-05-30T00:47:56.603Z,9.90
2019-05-30T00:50:25.146Z,9.90
2019-05-30T00:52:53.420Z,10.00
2019-05-30T00:55:21.690Z,10.00
2019-05-30T00:57:49.912Z,9.90
2019-05-30T01:00:18.725Z,9.90
2019-05-30T01:02:47.090Z,9.90
2019-05-30T01:05:15.346Z,9.90
2019-05-30T01:07:43.651Z,9.90
2019-05-30T01:10:11.991Z,9.80
2019-05-30T01:12:40.272Z,9.90
2019-05-30T01:15:08.961Z,10.00
2019-05-30T01:17:37.255Z,10.00
2019-05-30T01:20:05.691Z,10.10
2019-05-30T01:22:33.967Z,10.10
2019-05-30T01:25:04.070Z,10.10
2019-05-30T01:27:32.224Z,10.20
2019-05-30T01:30:01.627Z,10.20
2019-05-30T01:32:30.414Z,10.20
2019-05-30T01:34:59.857Z,10.20
2019-05-30T01:37:28.433Z,10.30
2019-05-30T01:39:57.669Z,10.30
2019-05-30T01:42:26.077Z,10.30
2019-05-30T01:44:54.346Z,10.30
2019-05-30T01:47:22.685Z,10.30
2019-05-30T01:49:50.917Z,10.30
2019-05-30T01:52:19.575Z,10.30
2019-05-30T01:54:47.924Z,10.30
2019-05-30T01:57:17.633Z,10.30
2019-05-30T01:59:45.903Z,10.30
2019-05-30T02:02:14.184Z,10.30
2019-05-30T02:04:42.458Z,10.30
2019-05-30T02:07:10.761Z,10.30
2019-05-30T02:09:39.073Z,10.30
2019-05-30T02:12:07.646Z,10.30
2019-05-30T02:14:35.977Z,10.30
2019-05-30T02:17:05.723Z,10.20
2019-05-30T02:19:34.196Z,10.20
2019-05-30T02:22:03.777Z,10.20
2019-05-30T02:24:32.246Z,10.30
2019-05-30T02:27:00.499Z,10.40
2019-05-30T02:29:28.760Z,10.40
2019-05-30T02:31:57.055Z,10.40
2019-05-30T02:34:25.375Z,10.40
2019-05-30T02:36:53.693Z,10.50
2019-05-30T02:39:21.922Z,10.50
2019-05-30T02:41:50.161Z,10.60
2019-05-30T02:44:18.420Z,10.60
2019-05-30T02:46:46.674Z,10.60
2019-05-30T02:49:15.090Z,10.50
2019-05-30T02:51:43.455Z,10.50
2019-05-30T02:54:13.218Z,10.40
2019-05-30T02:56:41.760Z,10.30
2019-05-30T02:59:11.582Z,10.30
2019-05-30T03:01:59.170Z,10.20
2019-05-30T03:04:10.930Z,10.30
2019-05-30T03:06:40.106Z,10.20
2019-05-30T03:09:10.916Z,10.10
2019-05-30T03:11:38.758Z,10.10
2019-05-30T03:14:12.075Z,10.10
2019-05-30T03:16:37.596Z,10.10
2019-05-30T03:19:06.301Z,10.00
2019-05-30T03:21:34.679Z,9.90
2019-05-30T03:24:04.959Z,9.90
2019-05-30T03:26:33.175Z,9.80
2019-05-30T03:29:02.754Z,9.90
2019-05-30T03:31:32.691Z,9.90
2019-05-30T03:34:04.527Z,10.00
2019-05-30T03:36:32.166Z,10.00
2019-05-30T03:39:00.621Z,10.10
2019-05-30T03:41:28.944Z,10.10
2019-05-30T03:43:57.230Z,10.10
2019-05-30T03:46:27.478Z,10.10
2019-05-30T03:48:56.504Z,10.10
2019-05-30T03:51:26.196Z,10.10
2019-05-30T03:53:54.432Z,10.10
2019-05-30T03:56:25.596Z,10.10
2019-05-30T03:59:00.970Z,10.10
2019-05-30T04:01:33.178Z,10.10
2019-05-30T04:04:09.208Z,10.30
2019-05-30T04:06:39.512Z,10.30
2019-05-30T04:09:11.323Z,10.40
2019-05-30T04:11:42.331Z,10.50
2019-05-30T04:14:13.209Z,10.60
2019-05-30T04:16:42.059Z,10.70
2019-05-30T04:19:12.333Z,10.80
2019-05-30T04:21:40.365Z,10.90
2019-05-30T04:24:09.753Z,11.00
2019-05-30T04:26:38.958Z,11.10
2019-05-30T04:29:07.975Z,11.30
2019-05-30T04:31:36.635Z,11.40
2019-05-30T04:34:05.013Z,11.50
2019-05-30T04:36:33.333Z,11.60
2019-05-30T04:39:01.640Z,11.70
2019-05-30T04:41:29.891Z,11.90
2019-05-30T04:43:58.175Z,12.00
2019-05-30T04:46:26.471Z,12.20
2019-05-30T04:48:54.753Z,12.40
2019-05-30T04:51:23.074Z,12.50
2019-05-30T04:53:51.688Z,12.70
2019-05-30T04:56:21.970Z,12.90
2019-05-30T04:58:51.834Z,13.10
2019-05-30T05:01:21.896Z,13.20
2019-05-30T05:03:50.158Z,13.40
2019-05-30T05:06:19.874Z,13.60
2019-05-30T05:08:48.194Z,13.70
2019-05-30T05:11:20.367Z,13.80
2019-05-30T05:13:46.519Z,14.00
2019-05-30T05:16:29.409Z,14.20
2019-05-30T05:18:44.764Z,14.20
2019-05-30T05:21:13.054Z,14.40
2019-05-30T05:23:41.298Z,14.50
2019-05-30T05:26:09.599Z,14.60
2019-05-30T05:28:37.970Z,14.70
2019-05-30T05:31:06.227Z,14.70
2019-05-30T05:33:34.499Z,14.70
2019-05-30T05:36:02.788Z,14.80
2019-05-30T05:38:31.107Z,14.80
2019-05-30T05:40:59.317Z,14.80
2019-05-30T05:43:28.557Z,14.70
2019-05-30T05:45:57.346Z,14.70
2019-05-30T05:48:25.570Z,14.70
2019-05-30T05:50:53.953Z,14.80
2019-05-30T05:53:23.067Z,14.80
2019-05-30T05:55:51.953Z,14.80
2019-05-30T05:58:20.907Z,14.90
2019-05-30T06:00:49.452Z,15.00
2019-05-30T06:03:18.805Z,15.10
2019-05-30T06:05:52.992Z,15.10
2019-05-30T06:08:17.683Z,15.20
2019-05-30T06:10:46.049Z,15.20
2019-05-30T06:13:14.466Z,15.10
2019-05-30T06:15:42.761Z,15.10
2019-05-30T06:18:11.060Z,15.20
2019-05-30T06:20:39.426Z,15.20
2019-05-30T06:23:07.756Z,15.30
2019-05-30T06:25:36.462Z,15.20
2019-05-30T06:28:04.775Z,15.30
2019-05-30T06:30:33.057Z,15.30
2019-05-30T06:33:01.424Z,15.30
2019-05-30T06:35:30.809Z,15.40
2019-05-30T06:37:59.292Z,15.40
2019-05-30T06:40:30.893Z,15.50
2019-05-30T06:42:57.967Z,15.50
2019-05-30T06:45:26.852Z,15.60
2019-05-30T06:47:55.268Z,15.70
2019-05-30T06:50:24.630Z,15.70
2019-05-30T06:52:53.111Z,15.70
2019-05-30T06:55:23.092Z,15.80
2019-05-30T06:57:51.542Z,15.80
2019-05-30T07:00:21.607Z,15.90
2019-05-30T07:02:50.030Z,15.90
2019-05-30T07:05:21.149Z,16.00
2019-05-30T07:07:50.721Z,16.00
2019-05-30T07:10:19.364Z,16.10
2019-05-30T07:12:47.653Z,16.10
2019-05-30T07:15:16.767Z,16.20
2019-05-30T07:17:45.092Z,16.20
2019-05-30T07:20:13.536Z,16.10
2019-05-30T07:22:41.978Z,16.20
2019-05-30T07:25:10.404Z,16.40
2019-05-30T07:27:38.780Z,16.40
2019-05-30T07:30:08.078Z,16.40
2019-05-30T07:32:36.534Z,16.40
2019-05-30T07:35:07.197Z,16.40
2019-05-30T07:37:35.471Z,16.40
2019-05-30T07:40:04.231Z,16.40
2019-05-30T07:42:32.739Z,16.60
2019-05-30T07:45:01.825Z,16.80
2019-05-30T07:47:30.317Z,16.80
2019-05-30T07:49:58.710Z,16.90
2019-05-30T07:52:27.078Z,16.90
2019-05-30T07:54:55.412Z,17.00
2019-05-30T07:57:23.720Z,17.00
2019-05-30T07:59:54.433Z,16.50
2019-05-30T08:02:22.884Z,16.60
2019-05-30T08:04:51.361Z,16.50
2019-05-30T08:07:20.543Z,16.60
2019-05-30T08:09:48.980Z,16.60
2019-05-30T08:12:17.631Z,16.50
2019-05-30T08:14:46.151Z,16.60
2019-05-30T08:17:14.457Z,16.60
2019-05-30T08:19:42.796Z,16.70
2019-05-30T08:22:11.177Z,16.70
2019-05-30T08:24:39.622Z,16.90
2019-05-30T08:27:07.958Z,17.20
2019-05-30T08:29:36.489Z,17.30
2019-05-30T08:32:05.273Z,17.00
2019-05-30T08:34:34.623Z,17.10
2019-05-30T08:37:03.137Z,17.10
2019-05-30T08:39:31.577Z,17.20
2019-05-30T08:41:59.974Z,17.10
2019-05-30T08:44:29.398Z,17.00
2019-05-30T08:46:57.833Z,16.90
2019-05-30T08:49:26.192Z,17.00
2019-05-30T08:51:54.688Z,17.20
2019-05-30T08:54:23.009Z,17.30
2019-05-30T08:56:53.110Z,17.30
2019-05-30T08:59:21.424Z,17.30
2019-05-30T09:01:52.621Z,17.40
2019-05-30T09:04:20.376Z,17.50
2019-05-30T09:06:48.842Z,17.50
2019-05-30T09:09:17.190Z,17.60
2019-05-30T09:11:46.347Z,17.70
2019-05-30T09:14:14.839Z,17.60
2019-05-30T09:16:43.164Z,17.60
2019-05-30T09:19:13.061Z,17.40
2019-05-30T09:21:41.528Z,17.20
2019-05-30T09:24:09.882Z,17.10
2019-05-30T09:26:38.984Z,17.30
2019-05-30T09:29:08.280Z,17.60
2019-05-30T09:31:38.080Z,17.70
2019-05-30T09:34:07.038Z,17.80
2019-05-30T09:36:35.720Z,18.00
2019-05-30T09:39:05.695Z,18.10
2019-05-30T09:41:34.057Z,18.40
2019-05-30T09:44:02.467Z,18.20
2019-05-30T09:46:30.903Z,18.40
2019-05-30T09:48:59.334Z,18.50
2019-05-30T09:51:27.751Z,18.20
2019-05-30T09:53:56.276Z,17.90
2019-05-30T09:56:24.637Z,18.10
2019-05-30T09:58:53.013Z,18.30
2019-05-30T10:01:21.476Z,18.50
2019-05-30T10:03:50.228Z,18.30
2019-05-30T10:06:29.058Z,18.60
2019-05-30T10:08:49.557Z,18.90
2019-05-30T10:11:19.339Z,19.20
2019-05-30T10:13:49.168Z,19.10
2019-05-30T10:16:17.958Z,19.40
2019-05-30T10:18:47.349Z,18.90
2019-05-30T10:21:16.448Z,18.90
2019-05-30T10:23:45.801Z,18.90
2019-05-30T10:26:14.908Z,18.50
2019-05-30T10:28:43.309Z,18.40
2019-05-30T10:31:11.768Z,18.70
2019-05-30T10:33:40.264Z,18.90
2019-05-30T10:36:08.686Z,19.10
2019-05-30T10:38:37.149Z,18.80
2019-05-30T10:41:05.629Z,19.10
2019-05-30T10:43:34.398Z,19.10
2019-05-30T10:46:02.814Z,19.60
2019-05-30T10:48:31.174Z,19.60
2019-05-30T10:51:00.546Z,19.20
2019-05-30T10:53:29.056Z,19.40
2019-05-30T10:55:57.387Z,19.20
2019-05-30T10:58:25.781Z,19.30
2019-05-30T11:00:55.812Z,19.30
2019-05-30T11:03:26.347Z,19.10
2019-05-30T11:06:07.421Z,19.10
2019-05-30T11:08:37.501Z,19.20
2019-05-30T11:11:07.794Z,19.20
2019-05-30T11:13:36.154Z,18.90
2019-05-30T11:16:04.535Z,18.70
2019-05-30T11:18:32.894Z,19.10
2019-05-30T11:21:02.582Z,19.30
2019-05-30T11:23:31.010Z,19.50
2019-05-30T11:25:59.374Z,19.50
2019-05-30T11:28:28.092Z,19.60
2019-05-30T11:30:57.440Z,19.90
2019-05-30T11:33:25.792Z,20.10
2019-05-30T11:35:55.082Z,20.30
2019-05-30T11:38:23.598Z,20.00
2019-05-30T11:40:53.386Z,19.60
2019-05-30T11:43:22.024Z,19.50
2019-05-30T11:45:51.463Z,19.00
2019-05-30T11:48:20.540Z,18.90
2019-05-30T11:50:50.409Z,19.30
2019-05-30T11:53:19.126Z,19.80
2019-05-30T11:55:48.149Z,20.00
2019-05-30T11:58:19.412Z,20.50
2019-05-30T12:00:46.587Z,20.70
2019-05-30T12:03:14.981Z,20.90
2019-05-30T12:05:43.383Z,21.00
2019-05-30T12:08:11.806Z,20.60
2019-05-30T12:10:40.131Z,20.70
2019-05-30T12:13:08.493Z,20.30
2019-05-30T12:15:37.214Z,20.30
2019-05-30T12:18:05.619Z,20.10
2019-05-30T12:20:34.129Z,19.80
2019-05-30T12:23:02.537Z,19.70
2019-05-30T12:25:31.352Z,19.70
2019-05-30T12:28:00.160Z,19.70
2019-05-30T12:30:28.830Z,19.80
2019-05-30T12:32:58.312Z,19.70
2019-05-30T12:35:27.823Z,19.60
2019-05-30T12:38:01.331Z,19.70
2019-05-30T12:40:26.135Z,19.60
2019-05-30T12:42:57.614Z,19.50
2019-05-30T12:45:24.613Z,19.20
2019-05-30T12:47:53.020Z,18.80
2019-05-30T12:50:21.706Z,18.90
2019-05-30T12:52:50.549Z,19.20
2019-05-30T12:55:19.074Z,19.00
2019-05-30T12:57:48.956Z,19.00
2019-05-30T13:00:19.184Z,19.00
2019-05-30T13:02:47.695Z,18.90
2019-05-30T13:05:16.980Z,19.10
2019-05-30T13:07:45.376Z,19.30
2019-05-30T13:10:13.766Z,19.50
2019-05-30T13:12:42.063Z,19.80
2019-05-30T13:15:10.818Z,19.90
2019-05-30T13:17:39.167Z,19.90
2019-05-30T13:20:07.904Z,19.80
2019-05-30T13:22:36.292Z,19.60
2019-05-30T13:25:05.846Z,19.70
2019-05-30T13:27:36.405Z,19.80
2019-05-30T13:30:06.189Z,19.90
2019-05-30T13:32:35.545Z,20.20
2019-05-30T13:35:03.919Z,20.30
2019-05-30T13:37:32.332Z,20.00
2019-05-30T13:40:01.409Z,19.80
2019-05-30T13:42:29.862Z,19.80
2019-05-30T13:44:58.253Z,19.70
2019-05-30T13:47:26.586Z,19.60
2019-05-30T13:49:54.971Z,19.50
2019-05-30T13:52:23.608Z,19.50
2019-05-30T13:54:51.982Z,19.50
2019-05-30T13:57:20.819Z,19.60
2019-05-30T13:59:49.117Z,19.50
2019-05-30T14:02:17.465Z,19.40
2019-05-30T14:04:47.414Z,19.30
2019-05-30T14:07:15.765Z,19.60
2019-05-30T14:09:44.092Z,19.80
2019-05-30T14:12:12.356Z,19.80
2019-05-30T14:14:40.741Z,19.90
2019-05-30T14:17:12.427Z,19.80
2019-05-30T14:19:42.917Z,19.80
2019-05-30T14:22:11.464Z,19.60
2019-05-30T14:24:40.044Z,19.60
2019-05-30T14:27:09.628Z,19.60
2019-05-30T14:29:38.078Z,19.70
2019-05-30T14:32:06.404Z,19.80
2019-05-30T14:34:34.824Z,19.50
2019-05-30T14:37:04.810Z,19.80
2019-05-30T14:39:33.364Z,19.70
2019-05-30T14:42:03.085Z,19.90
2019-05-30T14:44:31.646Z,20.00
2019-05-30T14:46:59.985Z,20.10
2019-05-30T14:49:28.664Z,19.90
2019-05-30T14:51:56.946Z,19.60
2019-05-30T14:54:25.607Z,19.30
2019-05-30T14:56:54.303Z,19.20
2019-05-30T14:59:22.666Z,19.00
2019-05-30T15:01:51.056Z,19.00
2019-05-30T15:04:19.470Z,19.10
2019-05-30T15:06:49.046Z,19.00
2019-05-30T15:09:25.571Z,18.80
2019-05-30T15:11:47.524Z,18.60
2019-05-30T15:14:16.874Z,18.50
2019-05-30T15:16:45.212Z,18.60
2019-05-30T15:19:14.328Z,18.70
2019-05-30T15:21:42.776Z,18.70
2019-05-30T15:24:12.730Z,18.80
2019-05-30T15:26:41.813Z,18.90
2019-05-30T15:29:10.183Z,18.80
2019-05-30T15:31:38.609Z,18.70
2019-05-30T15:34:08.381Z,18.60
2019-05-30T15:36:37.021Z,18.50
2019-05-30T15:39:06.858Z,18.30
2019-05-30T15:41:35.381Z,18.40
2019-05-30T15:44:03.741Z,18.50
2019-05-30T15:46:32.133Z,18.60
2019-05-30T15:49:00.564Z,18.70
2019-05-30T15:51:28.988Z,18.50
2019-05-30T15:53:57.377Z,18.30
2019-05-30T15:56:25.869Z,18.20
2019-05-30T15:58:54.278Z,18.20
2019-05-30T16:01:22.792Z,18.30
2019-05-30T16:03:51.273Z,18.30
2019-05-30T16:06:20.824Z,18.30
2019-05-30T16:08:49.313Z,18.30
2019-05-30T16:11:19.029Z,18.20
2019-05-30T16:13:47.677Z,18.10
2019-05-30T16:16:16.159Z,18.10
2019-05-30T16:18:44.522Z,18.10
2019-05-30T16:21:14.530Z,18.00
2019-05-30T16:23:43.012Z,18.00
2019-05-30T16:26:11.717Z,18.10
2019-05-30T16:28:40.165Z,18.30
2019-05-30T16:31:08.949Z,18.40
2019-05-30T16:33:37.367Z,18.60
2019-05-30T16:36:05.788Z,18.70
2019-05-30T16:38:34.108Z,18.80
2019-05-30T16:41:02.538Z,18.80
2019-05-30T16:43:31.380Z,18.90
2019-05-30T16:45:59.887Z,18.80
2019-05-30T16:48:28.327Z,18.80
2019-05-30T16:50:56.696Z,18.70
2019-05-30T16:53:27.388Z,18.70
2019-05-30T16:55:55.331Z,18.80
2019-05-30T16:58:23.844Z,18.90
2019-05-30T17:00:54.255Z,18.90
2019-05-30T17:03:23.975Z,19.00
2019-05-30T17:05:53.625Z,18.80
2019-05-30T17:08:22.492Z,18.80
2019-05-30T17:10:50.869Z,18.90
2019-05-30T17:13:19.630Z,19.00
2019-05-30T17:15:48.206Z,18.80
2019-05-30T17:18:16.520Z,18.70
2019-05-30T17:20:45.111Z,18.80
2019-05-30T17:23:13.501Z,18.80
2019-05-30T17:25:41.892Z,18.80
2019-05-30T17:28:10.290Z,18.80
2019-05-30T17:30:38.748Z,18.90
2019-05-30T17:33:07.426Z,18.90
2019-05-30T17:35:36.924Z,19.00
2019-05-30T17:38:05.345Z,19.10
2019-05-30T17:40:44.204Z,19.20
2019-05-30T17:43:03.954Z,19.10
2019-05-30T17:45:32.317Z,19.10
2019-05-30T17:48:15.545Z,19.10
2019-05-30T17:50:30.957Z,19.00
2019-05-30T17:52:59.732Z,19.00
2019-05-30T17:55:29.895Z,19.10
2019-05-30T17:57:58.502Z,19.00
2019-05-30T18:00:28.487Z,19.00
2019-05-30T18:02:57.283Z,18.90
2019-05-30T18:05:26.732Z,18.80
2019-05-30T18:07:55.312Z,18.80
2019-05-30T18:10:24.961Z,18.80
2019-05-30T18:12:53.532Z,18.70
2019-05-30T18:15:25.934Z,18.70
2019-05-30T18:17:52.098Z,18.80
2019-05-30T18:20:23.065Z,18.80
2019-05-30T18:22:51.879Z,18.80
2019-05-30T18:25:21.687Z,18.80
2019-05-30T18:27:50.202Z,18.80
2019-05-30T18:30:18.690Z,18.70
2019-05-30T18:32:47.132Z,18.70
2019-05-30T18:35:15.928Z,18.70
2019-05-30T18:37:45.891Z,18.70
2019-05-30T18:40:16.470Z,18.70
2019-05-30T18:42:44.943Z,18.70
2019-05-30T18:45:13.765Z,18.60
2019-05-30T18:47:42.227Z,18.70
2019-05-30T18:50:10.691Z,18.70
2019-05-30T18:52:39.226Z,18.70
2019-05-30T18:55:07.615Z,18.70
2019-05-30T18:57:37.287Z,18.60
2019-05-30T19:00:06.360Z,18.60
2019-05-30T19:02:35.662Z,18.60
2019-05-30T19:05:04.761Z,18.60
2019-05-30T19:07:34.043Z,18.60
2019-05-30T19:10:02.434Z,18.60
2019-05-30T19:12:32.141Z,18.60
2019-05-30T19:15:01.173Z,18.50
2019-05-30T19:17:29.630Z,18.60
2019-05-30T19:19:58.150Z,18.50
2019-05-30T19:22:26.494Z,18.40
2019-05-30T19:24:56.407Z,18.40
2019-05-30T19:27:26.226Z,18.40
2019-05-30T19:29:54.989Z,18.40
2019-05-30T19:32:23.416Z,18.40
2019-05-30T19:34:53.481Z,18.40
2019-05-30T19:37:21.760Z,18.30
2019-05-30T19:39:50.115Z,18.30
2019-05-30T19:42:19.021Z,18.30
2019-05-30T19:44:47.457Z,18.30
2019-05-30T19:47:15.828Z,18.20
2019-05-30T19:49:44.175Z,18.20
2019-05-30T19:52:12.503Z,18.20
2019-05-30T19:54:40.828Z,18.20
2019-05-30T19:57:09.193Z,18.20
2019-05-30T19:59:37.933Z,18.20
2019-05-30T20:02:07.769Z,18.20
2019-05-30T20:04:36.310Z,18.20
2019-05-30T20:07:05.030Z,18.20
2019-05-30T20:09:34.518Z,18.20
2019-05-30T20:12:07.791Z,18.20
2019-05-30T20:14:33.694Z,18.10
2019-05-30T20:17:02.074Z,18.20
2019-05-30T20:19:33.472Z,18.10
2019-05-30T20:22:01.687Z,18.00
2019-05-30T20:24:30.593Z,18.10
2019-05-30T20:26:59.096Z,18.00
2019-05-30T20:29:27.504Z,18.00
2019-05-30T20:31:55.900Z,18.00
2019-05-30T20:34:24.360Z,17.90
2019-05-30T20:36:52.754Z,17.90
2019-05-30T20:39:21.207Z,17.80
2019-05-30T20:41:49.702Z,17.80
2019-05-30T20:44:18.157Z,17.80
2019-05-30T20:46:47.353Z,17.80
2019-05-30T20:49:15.830Z,17.80
2019-05-30T20:51:44.212Z,17.80
2019-05-30T20:54:12.567Z,17.70
2019-05-30T20:56:41.468Z,17.70
2019-05-30T20:59:10.546Z,17.70
2019-05-30T21:01:39.852Z,17.70
2019-05-30T21:04:08.618Z,17.70
2019-05-30T21:06:37.201Z,17.70
2019-05-30T21:09:06.499Z,17.80
2019-05-30T21:11:36.069Z,17.70
2019-05-30T21:14:04.502Z,17.70
2019-05-30T21:16:35.590Z,17.70
2019-05-30T21:19:04.175Z,17.60
2019-05-30T21:21:32.509Z,17.60
2019-05-30T21:24:02.888Z,17.60
2019-05-30T21:26:31.541Z,17.50
2019-05-30T21:28:59.840Z,17.50
2019-05-30T21:31:28.243Z,17.50
2019-05-30T21:33:56.494Z,17.50
2019-05-30T21:36:26.826Z,17.50
2019-05-30T21:38:55.278Z,17.40
2019-05-30T21:41:23.606Z,17.50
2019-05-30T21:43:51.896Z,17.50
2019-05-30T21:46:20.234Z,17.40
2019-05-30T21:48:49.086Z,17.40
2019-05-30T21:51:17.926Z,17.40
2019-05-30T21:53:46.262Z,17.50
2019-05-30T21:56:14.599Z,17.40
2019-05-30T21:58:44.041Z,17.40
2019-05-30T22:01:31.559Z,17.40
2019-05-30T22:03:59.979Z,17.50
2019-05-30T22:06:28.727Z,17.40
2019-05-30T22:08:57.197Z,17.50
2019-05-30T22:11:25.488Z,17.40
2019-05-30T22:13:53.785Z,17.40
2019-05-30T22:16:22.251Z,17.40
2019-05-30T22:18:50.558Z,17.30
2019-05-30T22:21:18.859Z,17.30
2019-05-30T22:23:48.121Z,17.30
2019-05-30T22:26:16.531Z,17.30
2019-05-30T22:28:44.809Z,17.30
2019-05-30T22:31:13.183Z,17.20
2019-05-30T22:33:42.606Z,17.30
2019-05-30T22:36:11.266Z,17.30
2019-05-30T22:38:39.592Z,17.20
2019-05-30T22:41:07.866Z,17.10
2019-05-30T22:43:36.105Z,17.00
2019-05-30T22:46:04.359Z,16.90
2019-05-30T22:48:32.668Z,16.90
2019-05-30T22:51:01.899Z,16.90
2019-05-30T22:53:30.370Z,16.80
2019-05-30T22:55:58.679Z,16.80
2019-05-30T22:58:27.026Z,16.80
2019-05-30T23:00:56.245Z,16.70
2019-05-30T23:03:24.753Z,16.60
2019-05-30T23:05:53.313Z,16.50
2019-05-30T23:08:22.186Z,16.50
2019-05-30T23:10:51.629Z,16.40
2019-05-30T23:13:20.282Z,16.40
2019-05-30T23:15:48.590Z,16.30
2019-05-30T23:18:16.935Z,16.30
2019-05-30T23:20:46.562Z,16.20
2019-05-30T23:23:15.433Z,16.30
2019-05-30T23:25:43.716Z,16.30
2019-05-30T23:28:11.987Z,16.30
2019-05-30T23:30:40.287Z,16.20
2019-05-30T23:33:08.541Z,16.20
2019-05-30T23:35:36.931Z,16.10
2019-05-30T23:38:05.645Z,16.10
2019-05-30T23:40:34.840Z,16.10
2019-05-30T23:43:03.416Z,16.10
2019-05-30T23:45:31.683Z,16.20
2019-05-30T23:47:59.945Z,16.10
2019-05-30T23:50:28.232Z,16.10
2019-05-30T23:52:56.468Z,16.00
2019-05-30T23:55:24.731Z,16.00
2019-05-30T23:57:53.014Z,15.90
